Time;durP1;ratioP1;P1;durP2;ratioP2;P2;SDS_P1;SDS_P2;PMS_P1;PMS_P2;Temp;Humidity;BMP_temperature;BMP_pressure;BME280_temperature;BME280_humidity;BME280_pressure;Samples;Min_cycle;Max_cycle;Signal;HPM_P1;HPM_P2
2024/01/17 00:02:02;;;;;;;17.00;10.50;;;-0.70;1.00;;;;;;5109799;28;20714;-77
2024/01/17 00:04:29;;;;;;;13.93;11.43;;;-0.70;1.00;;;;;;5110026;28;20300;-79
2024/01/17 00:06:58;;;;;;;12.30;8.93;;;-0.70;1.00;;;;;;5109840;28;20242;-79
2024/01/17 00:09:26;;;;;;;12.05;10.35;;;-0.80;1.00;;;;;;5109079;28;20235;-78
2024/01/17 00:11:53;;;;;;;16.90;10.15;;;-0.80;1.00;;;;;;5109415;28;20797;-77
2024/01/17 00:14:20;;;;;;;14.77;10.23;;;-0.80;1.00;;;;;;5111031;28;20231;-78
2024/01/17 00:16:47;;;;;;;13.65;9.65;;;-0.90;1.00;;;;;;5115934;27;20243;-77
2024/01/17 00:19:14;;;;;;;15.90;10.07;;;-0.90;1.00;;;;;;5109257;27;21132;-76
2024/01/17 00:21:42;;;;;;;13.73;10.27;;;-0.90;1.00;;;;;;5110386;28;20346;-77
2024/01/17 00:24:09;;;;;;;16.33;9.23;;;-0.80;1.00;;;;;;5109077;28;21061;-77
2024/01/17 00:26:37;;;;;;;10.80;8.68;;;-0.90;1.00;;;;;;5107893;28;20325;-75
2024/01/17 00:29:04;;;;;;;12.23;9.35;;;-0.90;1.00;;;;;;5106076;28;20231;-77
2024/01/17 00:31:31;;;;;;;14.07;9.88;;;-1.00;1.00;;;;;;5112234;28;20239;-76
2024/01/17 00:34:01;;;;;;;14.85;9.10;;;-1.00;1.00;;;;;;5091566;28;20231;-75
2024/01/17 00:36:31;;;;;;;11.27;8.90;;;-1.00;1.00;;;;;;5111164;28;20246;-75
2024/01/17 00:38:58;;;;;;;14.85;9.30;;;-1.00;1.00;;;;;;5103024;28;20234;-76
2024/01/17 00:41:26;;;;;;;16.05;10.43;;;-1.00;1.00;;;;;;5111176;28;20219;-75
2024/01/17 00:43:54;;;;;;;10.73;9.20;;;-1.10;1.00;;;;;;5106452;27;20296;-76
2024/01/17 00:46:21;;;;;;;13.20;9.27;;;-1.10;1.00;;;;;;5107834;28;20249;-75
2024/01/17 00:48:48;;;;;;;13.82;8.75;;;-1.10;1.00;;;;;;5106581;28;20271;-75
2024/01/17 00:51:25;;;;;;;11.55;8.65;;;-1.10;1.00;;;;;;5104810;27;20727;-76
2024/01/17 00:53:52;;;;;;;12.48;9.40;;;-1.20;1.00;;;;;;5104697;27;20293;-76
2024/01/17 00:56:19;;;;;;;11.40;7.85;;;-1.20;1.00;;;;;;5086793;28;20292;-76
2024/01/17 00:58:47;;;;;;;9.00;8.05;;;-1.20;1.00;;;;;;5108485;28;20334;-76
2024/01/17 01:01:15;;;;;;;11.35;9.00;;;-1.30;1.00;;;;;;5106229;28;20314;-78
2024/01/17 01:03:43;;;;;;;10.93;8.20;;;-1.30;1.00;;;;;;5107908;28;20586;-77
2024/01/17 01:06:10;;;;;;;10.07;8.57;;;-1.30;1.00;;;;;;5106528;28;20312;-76
2024/01/17 01:08:38;;;;;;;11.20;8.70;;;-1.30;1.00;;;;;;5106071;27;20239;-76
2024/01/17 01:11:05;;;;;;;10.30;8.70;;;-1.40;1.00;;;;;;5104267;28;20734;-76
2024/01/17 01:13:32;;;;;;;11.40;8.60;;;-1.40;1.00;;;;;;5107496;27;20239;-77
2024/01/17 01:15:59;;;;;;;10.93;8.90;;;-1.40;1.00;;;;;;5097818;28;20324;-77
2024/01/17 01:18:27;;;;;;;14.80;8.98;;;-1.50;1.00;;;;;;5109006;27;20343;-75
2024/01/17 01:20:54;;;;;;;10.13;8.88;;;-1.50;1.00;;;;;;5104238;28;20259;-76
2024/01/17 01:23:24;;;;;;;15.23;9.40;;;-1.60;1.00;;;;;;5104964;28;20259;-76
2024/01/17 01:26:14;;;;;;;12.57;8.48;;;-1.60;1.00;;;;;;5108000;27;20293;-76
2024/01/17 01:28:43;;;;;;;15.10;10.45;;;-1.70;1.00;;;;;;5089342;28;20237;-76
2024/01/17 01:31:11;;;;;;;10.98;9.20;;;-1.70;1.00;;;;;;5106816;27;21028;-75
2024/01/17 01:33:39;;;;;;;14.32;9.32;;;-1.70;1.00;;;;;;5104705;28;20254;-75
2024/01/17 01:36:07;;;;;;;12.20;9.10;;;-1.80;1.00;;;;;;5106020;28;20869;-76
2024/01/17 01:38:34;;;;;;;11.95;8.90;;;-1.80;1.00;;;;;;5107335;28;20259;-76
2024/01/17 01:41:01;;;;;;;13.43;8.60;;;-1.80;1.00;;;;;;5094819;28;21006;-76
2024/01/17 01:43:28;;;;;;;10.82;8.52;;;-1.80;1.00;;;;;;5106397;28;20242;-79
2024/01/17 01:46:14;;;;;;;11.07;8.70;;;-1.80;1.00;;;;;;5106387;28;20263;-78
2024/01/17 01:48:43;;;;;;;13.32;9.15;;;-1.80;1.00;;;;;;5107263;28;20247;-79
2024/01/17 01:51:11;;;;;;;10.75;9.48;;;-1.90;1.00;;;;;;5103843;27;20978;-78
2024/01/17 01:53:42;;;;;;;12.00;9.05;;;-1.90;1.00;;;;;;5106206;28;20281;-78
2024/01/17 01:56:11;;;;;;;11.10;9.00;;;-1.90;1.00;;;;;;5108076;28;20239;-78
2024/01/17 01:58:43;;;;;;;12.20;9.30;;;-1.90;1.00;;;;;;5102849;28;20416;-78
2024/01/17 02:01:11;;;;;;;12.48;10.20;;;-2.00;1.00;;;;;;5099492;27;20246;-78
2024/01/17 02:03:40;;;;;;;13.68;9.93;;;-2.00;1.00;;;;;;5093829;27;20292;-79
2024/01/17 02:06:08;;;;;;;12.10;8.88;;;-2.00;1.00;;;;;;5106958;28;20231;-77
2024/01/17 02:08:35;;;;;;;13.77;10.95;;;-2.10;1.00;;;;;;5108776;27;20235;-77
2024/01/17 02:11:02;;;;;;;13.13;10.43;;;-2.10;1.00;;;;;;5102382;28;20921;-78
2024/01/17 02:13:30;;;;;;;17.63;10.00;;;-2.10;1.00;;;;;;5108009;28;20232;-77
2024/01/17 02:15:57;;;;;;;13.98;9.02;;;-2.10;1.00;;;;;;5104215;28;20736;-78
2024/01/17 02:18:24;;;;;;;12.50;10.35;;;-2.20;1.00;;;;;;5105570;28;20264;-78
2024/01/17 02:20:51;;;;;;;11.80;9.18;;;-2.20;1.00;;;;;;5103832;28;20365;-76
2024/01/17 02:23:27;;;;;;;16.75;9.73;;;-2.20;1.00;;;;;;5107391;28;20320;-76
2024/01/17 02:25:56;;;;;;;11.85;9.80;;;-2.30;1.00;;;;;;5104429;28;20715;-76
2024/01/17 02:28:24;;;;;;;11.80;9.48;;;-2.30;1.00;;;;;;5107983;28;20239;-77
2024/01/17 02:30:52;;;;;;;14.48;11.52;;;-2.30;1.00;;;;;;5109917;28;20243;-77
2024/01/17 02:33:20;;;;;;;12.50;11.02;;;-2.40;1.00;;;;;;5107744;28;20733;-77
2024/01/17 02:35:47;;;;;;;12.40;9.10;;;-2.40;1.00;;;;;;5106772;28;20235;-79
2024/01/17 02:38:14;;;;;;;12.15;10.18;;;-2.40;1.00;;;;;;5109869;28;20261;-76
2024/01/17 02:40:42;;;;;;;11.95;10.55;;;-2.40;1.00;;;;;;5109197;28;20231;-78
2024/01/17 02:43:11;;;;;;;11.30;9.65;;;-2.40;1.00;;;;;;5108165;28;20231;-76
2024/01/17 02:45:38;;;;;;;14.45;11.30;;;-2.40;1.00;;;;;;5108998;28;20750;-75
2024/01/17 02:48:05;;;;;;;13.70;10.65;;;-2.40;1.00;;;;;;5106844;28;20285;-76
2024/01/17 02:50:33;;;;;;;12.73;9.82;;;-2.40;1.00;;;;;;5097720;28;20244;-76
2024/01/17 02:53:00;;;;;;;13.20;10.38;;;-2.40;1.00;;;;;;5107776;28;21068;-76
2024/01/17 02:55:27;;;;;;;14.98;10.73;;;-2.40;1.00;;;;;;5103190;28;20853;-75
2024/01/17 02:57:54;;;;;;;12.07;10.55;;;-2.40;1.00;;;;;;5099457;28;20331;-76
2024/01/17 03:00:23;;;;;;;13.95;10.35;;;-2.40;1.00;;;;;;5107802;28;21407;-75
2024/01/17 03:02:49;;;;;;;12.85;9.93;;;-2.40;1.00;;;;;;5106414;28;20236;-77
2024/01/17 03:05:15;;;;;;;11.82;10.63;;;-2.40;1.00;;;;;;5105775;27;20255;-77
2024/01/17 03:07:42;;;;;;;16.05;10.23;;;-2.40;1.00;;;;;;5104034;27;20718;-77
2024/01/17 03:10:12;;;;;;;14.65;10.73;;;-2.40;1.00;;;;;;5112697;28;20722;-76
2024/01/17 03:12:39;;;;;;;15.63;10.27;;;-2.40;1.00;;;;;;5111244;28;21036;-77
2024/01/17 03:15:07;;;;;;;12.32;10.40;;;-2.40;1.00;;;;;;5108896;28;20307;-76
2024/01/17 03:17:37;;;;;;;12.32;10.90;;;-2.40;1.00;;;;;;5109121;28;21142;-76
2024/01/17 03:20:05;;;;;;;13.00;10.23;;;-2.50;1.00;;;;;;5106206;28;20231;-80
2024/01/17 03:22:32;;;;;;;15.13;10.55;;;-2.50;1.00;;;;;;5108526;28;20695;-76
2024/01/17 03:24:59;;;;;;;14.27;10.05;;;-2.50;1.00;;;;;;5110958;28;20335;-77
2024/01/17 03:27:26;;;;;;;13.93;11.13;;;-2.50;1.00;;;;;;5109344;28;20235;-76
2024/01/17 03:29:53;;;;;;;16.33;10.73;;;-2.50;1.00;;;;;;5108914;28;20331;-77
2024/01/17 03:32:20;;;;;;;13.07;10.50;;;-2.50;1.00;;;;;;5110336;28;20322;-77
2024/01/17 03:34:48;;;;;;;11.27;10.13;;;-2.50;1.00;;;;;;5108593;27;20235;-76
2024/01/17 03:37:15;;;;;;;13.50;11.05;;;-2.60;1.00;;;;;;5101911;28;20703;-76
2024/01/17 03:39:44;;;;;;;15.77;11.50;;;-2.60;1.00;;;;;;5109197;28;21036;-75
2024/01/17 03:42:15;;;;;;;16.33;10.35;;;-2.60;1.00;;;;;;5109239;28;20569;-76
2024/01/17 03:44:42;;;;;;;19.02;10.88;;;-2.60;1.00;;;;;;5110892;28;20535;-77
2024/01/17 03:47:12;;;;;;;14.23;10.95;;;-2.70;1.00;;;;;;5106623;27;20326;-77
2024/01/17 03:49:39;;;;;;;14.20;10.07;;;-2.70;1.00;;;;;;5108204;28;20228;-76
2024/01/17 03:52:08;;;;;;;15.00;11.90;;;-2.70;1.00;;;;;;5106594;28;20282;-74
2024/01/17 03:54:36;;;;;;;14.10;10.80;;;-2.70;1.00;;;;;;5106847;28;20235;-73
2024/01/17 03:57:04;;;;;;;17.75;11.25;;;-2.80;1.00;;;;;;5107844;28;20235;-74
2024/01/17 03:59:31;;;;;;;21.77;11.27;;;-2.80;1.00;;;;;;5107845;28;20235;-72
2024/01/17 04:01:58;;;;;;;11.63;10.43;;;-2.80;1.00;;;;;;5107168;28;20326;-74
2024/01/17 04:04:28;;;;;;;14.13;9.57;;;-2.80;1.00;;;;;;5108264;28;21216;-75
2024/01/17 04:06:55;;;;;;;18.42;12.55;;;-2.80;1.00;;;;;;5104550;28;20330;-74
2024/01/17 04:09:24;;;;;;;13.20;10.18;;;-2.70;1.00;;;;;;5108725;28;20338;-75
2024/01/17 04:11:52;;;;;;;14.27;9.98;;;-2.80;1.00;;;;;;5106261;28;20814;-74
2024/01/17 04:14:19;;;;;;;18.85;10.82;;;-2.90;1.00;;;;;;5111308;28;20243;-73
2024/01/17 04:16:46;;;;;;;13.63;10.93;;;-2.90;1.00;;;;;;5108571;28;20341;-73
2024/01/17 04:19:13;;;;;;;16.60;11.93;;;-3.00;1.00;;;;;;5106416;27;20668;-74
2024/01/17 04:21:40;;;;;;;12.60;10.90;;;-3.00;1.00;;;;;;5107247;28;20265;-72
2024/01/17 04:24:08;;;;;;;14.52;10.48;;;-3.00;1.00;;;;;;5102784;28;20236;-74
2024/01/17 04:26:36;;;;;;;12.15;10.85;;;-3.00;1.00;;;;;;5107570;28;20334;-74
2024/01/17 04:29:03;;;;;;;13.57;10.63;;;-3.00;1.00;;;;;;5103924;28;20425;-74
2024/01/17 04:31:31;;;;;;;13.73;11.07;;;-3.00;1.00;;;;;;5105897;28;21063;-74
2024/01/17 04:34:01;;;;;;;12.30;10.15;;;-3.00;1.00;;;;;;5103623;28;20368;-73
2024/01/17 04:36:31;;;;;;;11.60;10.35;;;-3.00;1.00;;;;;;5107503;28;20287;-77
2024/01/17 04:39:00;;;;;;;15.50;10.65;;;-3.00;1.00;;;;;;5110416;28;20231;-73
2024/01/17 04:41:27;;;;;;;13.60;11.18;;;-3.00;1.00;;;;;;5106507;27;20710;-73
2024/01/17 04:43:56;;;;;;;14.10;10.63;;;-3.00;1.00;;;;;;5107146;27;20313;-72
2024/01/17 04:46:24;;;;;;;13.90;9.88;;;-3.00;1.00;;;;;;5107600;28;20699;-73
2024/01/17 04:48:50;;;;;;;12.70;9.52;;;-3.10;1.00;;;;;;5106120;27;20714;-74
2024/01/17 04:51:17;;;;;;;14.38;9.32;;;-3.00;1.00;;;;;;5106048;27;20255;-74
2024/01/17 04:53:44;;;;;;;17.08;12.30;;;-3.00;1.00;;;;;;5105613;27;20711;-74
2024/01/17 04:56:13;;;;;;;11.35;10.15;;;-3.00;1.00;;;;;;5109199;27;20223;-73
2024/01/17 04:58:40;;;;;;;14.32;10.15;;;-3.00;1.00;;;;;;5110172;28;20246;-73
2024/01/17 05:01:09;;;;;;;18.45;10.80;;;-3.00;1.00;;;;;;5103244;28;20266;-73
2024/01/17 05:03:39;;;;;;;15.77;11.32;;;-3.10;1.00;;;;;;5102002;28;20234;-76
2024/01/17 05:06:08;;;;;;;12.55;11.07;;;-3.10;1.00;;;;;;5106374;27;20297;-75
2024/01/17 05:08:35;;;;;;;13.95;10.98;;;-3.10;1.00;;;;;;5098982;27;20985;-76
2024/01/17 05:11:02;;;;;;;14.43;11.82;;;-3.10;1.00;;;;;;5105357;27;20238;-76
2024/01/17 05:13:29;;;;;;;15.30;11.52;;;-3.10;1.00;;;;;;5105902;27;20251;-76
2024/01/17 05:15:57;;;;;;;14.48;11.40;;;-3.20;1.00;;;;;;5111034;28;20227;-76
2024/01/17 05:18:25;;;;;;;13.65;10.65;;;-3.20;1.00;;;;;;5105958;28;20282;-76
2024/01/17 05:20:52;;;;;;;15.43;11.18;;;-3.20;1.00;;;;;;5104229;27;20269;-77
2024/01/17 05:23:20;;;;;;;15.10;11.50;;;-3.20;1.00;;;;;;5104851;27;20239;-76
2024/01/17 05:25:48;;;;;;;18.30;12.30;;;-3.20;1.00;;;;;;5105685;27;20326;-77
2024/01/17 05:28:15;;;;;;;15.88;11.40;;;-3.30;1.00;;;;;;5108468;27;20238;-76
2024/01/17 05:30:42;;;;;;;14.95;10.65;;;-3.30;1.00;;;;;;5108830;27;20239;-77
2024/01/17 05:33:09;;;;;;;12.80;11.45;;;-3.30;1.00;;;;;;5107148;27;20685;-77
2024/01/17 05:35:38;;;;;;;15.10;11.10;;;-3.30;1.00;;;;;;5107382;27;20254;-77
2024/01/17 05:38:05;;;;;;;15.45;11.15;;;-3.30;1.00;;;;;;5106978;27;20405;-77
2024/01/17 05:40:32;;;;;;;15.65;10.77;;;-3.30;1.00;;;;;;5110357;27;20235;-77
2024/01/17 05:43:01;;;;;;;14.23;11.25;;;-3.30;1.00;;;;;;5107180;28;21073;-76
2024/01/17 05:45:28;;;;;;;23.40;11.93;;;-3.40;1.00;;;;;;5107307;28;20987;-76
2024/01/17 05:47:55;;;;;;;18.73;12.10;;;-3.40;1.00;;;;;;5111058;28;20235;-77
2024/01/17 05:50:22;;;;;;;14.45;10.95;;;-3.40;1.00;;;;;;5109065;27;20338;-78
2024/01/17 05:52:51;;;;;;;18.45;10.95;;;-3.40;1.00;;;;;;5106084;27;20330;-77
2024/01/17 05:55:19;;;;;;;14.23;11.63;;;-3.40;1.00;;;;;;5106271;27;20262;-77
2024/01/17 05:57:47;;;;;;;15.13;10.38;;;-3.40;1.00;;;;;;5102829;27;20231;-78
2024/01/17 06:00:14;;;;;;;16.00;11.45;;;-3.40;1.00;;;;;;5104664;27;20239;-75
2024/01/17 06:02:42;;;;;;;15.25;11.70;;;-3.50;1.00;;;;;;5098726;27;20750;-78
2024/01/17 06:05:09;;;;;;;14.55;11.00;;;-3.50;1.00;;;;;;5098334;27;20243;-77
2024/01/17 06:07:38;;;;;;;14.45;10.35;;;-3.50;1.00;;;;;;5099966;27;20255;-76
2024/01/17 06:10:08;;;;;;;15.38;10.50;;;-3.50;1.00;;;;;;5100944;27;20421;-77
2024/01/17 06:12:35;;;;;;;16.38;10.98;;;-3.50;1.00;;;;;;5103780;27;20249;-75
2024/01/17 06:15:02;;;;;;;16.45;10.93;;;-3.50;1.00;;;;;;5109205;27;20304;-79
2024/01/17 06:17:31;;;;;;;15.65;11.18;;;-3.50;1.00;;;;;;5112147;27;20255;-78
2024/01/17 06:19:58;;;;;;;17.15;11.50;;;-3.60;1.00;;;;;;5107101;27;20363;-78
2024/01/17 06:22:25;;;;;;;11.77;10.00;;;-3.60;1.00;;;;;;5104261;27;20755;-77
2024/01/17 06:24:52;;;;;;;12.80;10.27;;;-3.60;1.00;;;;;;5091748;28;20235;-78
2024/01/17 06:27:23;;;;;;;13.45;9.55;;;-3.60;1.00;;;;;;5090959;28;20252;-77
2024/01/17 06:29:51;;;;;;;13.30;10.05;;;-3.60;1.00;;;;;;5082357;28;20270;-75
2024/01/17 06:32:18;;;;;;;13.55;9.82;;;-3.60;1.00;;;;;;5088556;28;20243;-79
2024/01/17 06:34:48;;;;;;;14.13;10.73;;;-3.60;1.00;;;;;;5093635;28;20960;-78
2024/01/17 06:37:15;;;;;;;15.02;11.30;;;-3.60;1.00;;;;;;5092434;28;20283;-77
2024/01/17 06:39:43;;;;;;;17.23;10.00;;;-3.50;1.00;;;;;;5088777;28;20282;-77
2024/01/17 06:42:10;;;;;;;13.30;10.25;;;-3.50;1.00;;;;;;5088240;28;20910;-78
2024/01/17 06:44:40;;;;;;;16.13;10.77;;;-3.50;1.00;;;;;;5088031;28;20236;-77
2024/01/17 06:47:10;;;;;;;16.98;11.70;;;-3.40;1.00;;;;;;5090065;28;20252;-78
2024/01/17 06:49:39;;;;;;;13.57;10.43;;;-3.40;1.00;;;;;;5089674;28;20285;-79
2024/01/17 06:52:07;;;;;;;16.00;12.38;;;-3.40;1.00;;;;;;5087218;28;20243;-78
2024/01/17 06:54:34;;;;;;;18.10;12.63;;;-3.30;1.00;;;;;;5085970;28;20238;-78
2024/01/17 06:57:01;;;;;;;11.73;10.45;;;-3.40;1.00;;;;;;5088769;28;20277;-78
2024/01/17 06:59:28;;;;;;;13.30;10.15;;;-3.30;1.00;;;;;;5086862;28;20235;-78
2024/01/17 07:01:56;;;;;;;14.65;11.38;;;-3.40;1.00;;;;;;5088521;28;20304;-77
2024/01/17 07:04:24;;;;;;;17.10;10.13;;;-3.40;1.00;;;;;;5077117;28;20239;-79
2024/01/17 07:06:52;;;;;;;13.50;10.02;;;-3.40;1.00;;;;;;5070706;28;20240;-76
2024/01/17 07:09:22;;;;;;;13.25;10.82;;;-3.40;1.00;;;;;;5087596;28;20281;-78
2024/01/17 07:11:49;;;;;;;13.82;10.15;;;-3.40;1.00;;;;;;5082959;28;20318;-77
2024/01/17 07:14:16;;;;;;;12.25;10.25;;;-3.50;1.00;;;;;;5087149;28;20400;-79
2024/01/17 07:16:43;;;;;;;12.35;10.52;;;-3.40;1.00;;;;;;5083116;28;20313;-75
2024/01/17 07:19:12;;;;;;;14.23;10.40;;;-3.40;1.00;;;;;;5088924;28;21010;-76
2024/01/17 07:21:42;;;;;;;15.43;11.27;;;-3.40;1.00;;;;;;5081797;28;20242;-74
2024/01/17 07:24:10;;;;;;;13.82;11.30;;;-3.40;1.00;;;;;;5099147;27;20239;-76
2024/01/17 07:26:37;;;;;;;14.93;11.05;;;-3.40;1.00;;;;;;5102672;28;20242;-76
2024/01/17 07:29:05;;;;;;;15.30;11.43;;;-3.50;1.00;;;;;;5106758;27;20289;-74
2024/01/17 07:31:32;;;;;;;15.85;12.48;;;-3.40;1.00;;;;;;5103038;28;21097;-75
2024/01/17 07:33:58;;;;;;;17.50;10.05;;;-3.40;1.00;;;;;;5101417;27;20273;-74
2024/01/17 07:36:27;;;;;;;12.48;10.15;;;-3.40;1.00;;;;;;5103448;27;21024;-75
2024/01/17 07:38:54;;;;;;;15.32;11.40;;;-3.40;1.00;;;;;;5101215;27;20298;-73
2024/01/17 07:41:21;;;;;;;14.98;10.98;;;-3.30;1.00;;;;;;5101931;27;20707;-75
2024/01/17 07:43:48;;;;;;;17.33;11.57;;;-3.30;1.00;;;;;;5099302;27;20281;-74
2024/01/17 07:46:18;;;;;;;12.85;10.02;;;-3.30;1.00;;;;;;5102244;27;20870;-75
2024/01/17 07:48:45;;;;;;;13.88;9.55;;;-3.30;1.00;;;;;;5102108;27;20235;-75
2024/01/17 07:51:12;;;;;;;13.98;10.75;;;-3.30;1.00;;;;;;5092305;27;20789;-76
2024/01/17 07:53:40;;;;;;;15.93;9.75;;;-3.20;1.00;;;;;;5103694;27;20772;-75
2024/01/17 07:56:07;;;;;;;14.52;9.63;;;-3.20;1.00;;;;;;5104891;27;20877;-77
2024/01/17 07:58:34;;;;;;;16.33;10.32;;;-3.10;1.00;;;;;;5103762;27;20296;-77
2024/01/17 08:01:02;;;;;;;12.88;9.80;;;-3.00;1.00;;;;;;5106671;27;20235;-78
2024/01/17 08:03:29;;;;;;;16.88;9.90;;;-2.90;1.00;;;;;;5108944;27;20303;-76
2024/01/17 08:05:56;;;;;;;13.60;8.23;;;-2.80;1.00;;;;;;5109050;27;20317;-77
2024/01/17 08:08:24;;;;;;;15.68;10.50;;;-2.80;1.00;;;;;;5107657;27;20304;-77
2024/01/17 08:10:56;;;;;;;14.73;10.50;;;-2.80;1.00;;;;;;5106660;28;20253;-77
2024/01/17 08:13:22;;;;;;;17.27;10.15;;;-2.60;1.00;;;;;;5116574;27;20339;-77
2024/01/17 08:15:51;;;;;;;12.23;9.40;;;-2.50;1.00;;;;;;5112760;27;21014;-77
2024/01/17 08:18:18;;;;;;;12.55;9.27;;;-2.40;1.00;;;;;;5115184;27;20292;-77
2024/01/17 08:20:46;;;;;;;15.02;9.20;;;-2.30;1.00;;;;;;5112456;27;20771;-78
2024/01/17 08:23:13;;;;;;;9.30;7.57;;;-2.20;1.00;;;;;;5113524;27;20239;-78
2024/01/17 08:25:40;;;;;;;10.65;8.18;;;-2.10;1.00;;;;;;5117799;28;20231;-77
2024/01/17 08:28:08;;;;;;;17.42;9.88;;;-2.00;1.00;;;;;;5106185;27;20231;-76
2024/01/17 08:30:35;;;;;;;11.80;8.27;;;-1.80;1.00;;;;;;5083887;28;20232;-78
2024/01/17 08:33:02;;;;;;;8.80;8.00;;;-1.60;1.00;;;;;;5114200;27;20318;-78
2024/01/17 08:35:30;;;;;;;10.02;7.88;;;-1.40;1.00;;;;;;5107789;27;20843;-74
2024/01/17 08:37:57;;;;;;;13.55;7.53;;;-1.20;1.00;;;;;;5092501;27;20892;-74
2024/01/17 08:40:24;;;;;;;14.00;7.97;;;-1.00;1.00;;;;;;5095878;27;20735;-73
2024/01/17 08:42:51;;;;;;;11.63;7.80;;;-0.80;1.00;;;;;;5094642;27;20231;-76
2024/01/17 08:45:21;;;;;;;12.23;8.95;;;-0.70;1.00;;;;;;5106722;27;20231;-75
2024/01/17 08:47:48;;;;;;;9.68;8.57;;;-0.80;1.00;;;;;;5105975;27;20312;-73
2024/01/17 08:50:19;;;;;;;10.73;8.10;;;-0.90;1.00;;;;;;5103994;28;20235;-74
2024/01/17 08:52:48;;;;;;;13.43;8.20;;;-1.10;1.00;;;;;;5106376;28;20283;-76
2024/01/17 08:55:18;;;;;;;9.07;8.07;;;-1.20;1.00;;;;;;5106814;28;20242;-74
2024/01/17 08:57:45;;;;;;;12.43;7.68;;;-1.20;1.00;;;;;;5106288;28;20231;-75
2024/01/17 09:00:15;;;;;;;8.95;8.00;;;-1.30;1.00;;;;;;5104573;27;20267;-73
2024/01/17 09:02:43;;;;;;;12.60;7.72;;;-1.30;1.00;;;;;;5110009;27;20334;-75
2024/01/17 09:05:11;;;;;;;10.30;8.50;;;-1.40;1.00;;;;;;5101468;28;20231;-77
2024/01/17 09:07:43;;;;;;;15.05;9.65;;;-1.40;1.00;;;;;;5089463;28;20235;-77
2024/01/17 09:10:10;;;;;;;12.18;9.32;;;-1.30;1.00;;;;;;5108339;27;20289;-74
2024/01/17 09:12:37;;;;;;;11.85;9.60;;;-1.20;1.00;;;;;;5110072;28;20310;-74
2024/01/17 09:15:10;;;;;;;14.50;8.93;;;-1.20;1.00;;;;;;5106200;27;20248;-77
2024/01/17 09:17:37;;;;;;;14.25;9.40;;;-1.10;1.00;;;;;;5107998;28;20699;-76
2024/01/17 09:20:08;;;;;;;13.73;9.18;;;-0.90;1.00;;;;;;5110651;27;20334;-75
2024/01/17 09:22:35;;;;;;;11.52;8.35;;;-0.80;1.00;;;;;;5107560;28;20712;-74
2024/01/17 09:25:03;;;;;;;11.13;9.02;;;-0.50;1.00;;;;;;5075864;27;20839;-74
2024/01/17 09:27:30;;;;;;;13.27;9.82;;;-0.40;1.00;;;;;;5105551;27;20714;-74
2024/01/17 09:29:57;;;;;;;14.50;9.85;;;-0.20;1.00;;;;;;5106979;27;21197;-70
2024/01/17 09:32:25;;;;;;;12.98;9.35;;;-0.10;1.00;;;;;;5098491;27;20290;-74
2024/01/17 09:34:51;;;;;;;12.95;8.80;;;0.10;1.00;;;;;;5105315;27;20957;-73
2024/01/17 09:37:20;;;;;;;9.48;8.40;;;0.20;1.00;;;;;;5105536;27;20322;-73
2024/01/17 09:39:49;;;;;;;9.48;8.40;;;0.50;1.00;;;;;;5106406;27;20711;-74
2024/01/17 09:42:16;;;;;;;11.68;8.30;;;0.70;1.00;;;;;;5101872;27;20239;-79
2024/01/17 09:44:45;;;;;;;8.70;7.57;;;0.80;1.00;;;;;;5108146;27;20299;-78
2024/01/17 09:47:15;;;;;;;9.65;7.60;;;0.70;1.00;;;;;;5118730;27;20289;-80
2024/01/17 09:49:50;;;;;;;12.32;8.35;;;0.70;1.00;;;;;;5111677;28;20873;-76
2024/01/17 09:52:21;;;;;;;11.25;7.68;;;0.60;1.00;;;;;;5124743;28;20428;-78
2024/01/17 09:54:51;;;;;;;9.52;8.32;;;0.50;1.00;;;;;;5113997;27;20242;-77
2024/01/17 09:57:23;;;;;;;12.48;8.85;;;0.40;1.00;;;;;;5109927;27;20931;-76
2024/01/17 09:59:51;;;;;;;10.00;7.40;;;0.40;1.00;;;;;;5114193;27;20292;-76
2024/01/17 10:02:20;;;;;;;12.68;8.30;;;0.50;1.00;;;;;;5113907;28;20239;-80
2024/01/17 10:04:49;;;;;;;12.05;8.57;;;0.40;1.00;;;;;;5108471;27;21283;-78
2024/01/17 10:07:16;;;;;;;13.75;9.13;;;0.50;1.00;;;;;;5109368;28;20240;-78
2024/01/17 10:09:46;;;;;;;9.80;8.23;;;0.60;1.00;;;;;;5108578;28;20231;-79
2024/01/17 10:12:18;;;;;;;11.77;8.93;;;0.70;1.00;;;;;;5112029;27;20322;-78
2024/01/17 10:14:45;;;;;;;14.70;9.55;;;0.70;1.00;;;;;;5107811;27;20326;-79
2024/01/17 10:17:13;;;;;;;11.23;9.30;;;1.00;1.00;;;;;;5111656;27;20238;-80
2024/01/17 10:19:43;;;;;;;10.57;8.60;;;1.10;1.00;;;;;;5110704;27;20228;-77
2024/01/17 10:22:11;;;;;;;11.73;9.45;;;1.00;1.00;;;;;;5095397;28;21037;-79
2024/01/17 10:24:40;;;;;;;9.30;8.10;;;1.00;1.00;;;;;;5114350;27;20247;-78
2024/01/17 10:27:08;;;;;;;12.27;9.65;;;0.80;1.00;;;;;;5112258;28;20232;-78
2024/01/17 10:29:38;;;;;;;12.63;10.65;;;0.70;1.00;;;;;;5107741;27;20287;-78
2024/01/17 10:32:06;;;;;;;11.38;9.73;;;0.80;1.00;;;;;;5107356;28;20231;-77
2024/01/17 10:34:34;;;;;;;11.65;9.35;;;1.10;1.00;;;;;;5106784;27;20236;-78
2024/01/17 10:37:05;;;;;;;12.52;9.77;;;1.40;1.00;;;;;;5103648;28;21057;-75
2024/01/17 10:39:32;;;;;;;13.43;9.43;;;1.50;1.00;;;;;;5104607;27;20239;-75
2024/01/17 10:42:04;;;;;;;13.68;9.48;;;1.50;1.00;;;;;;5098047;27;20646;-75
2024/01/17 10:44:33;;;;;;;12.82;9.93;;;1.70;1.00;;;;;;5103811;27;21082;-77
2024/01/17 10:47:00;;;;;;;15.38;9.85;;;1.60;1.00;;;;;;5104034;27;20239;-77
2024/01/17 10:49:27;;;;;;;11.85;9.38;;;1.60;1.00;;;;;;5104212;27;20262;-77
2024/01/17 10:52:01;;;;;;;10.30;9.25;;;1.90;1.00;;;;;;5101961;27;20692;-77
2024/01/17 10:54:33;;;;;;;14.82;10.27;;;2.10;1.00;;;;;;5101809;27;20335;-76
2024/01/17 10:57:05;;;;;;;11.13;8.77;;;2.20;1.00;;;;;;5104135;27;20342;-76
2024/01/17 10:59:34;;;;;;;10.77;9.68;;;2.50;1.00;;;;;;5101558;28;20704;-76
2024/01/17 11:02:02;;;;;;;13.18;9.73;;;2.80;1.00;;;;;;5104897;27;20379;-75
2024/01/17 11:04:31;;;;;;;12.52;9.02;;;3.00;1.00;;;;;;5102878;27;20958;-76
2024/01/17 11:06:59;;;;;;;13.88;9.70;;;3.20;1.00;;;;;;5103186;27;20293;-76
2024/01/17 11:09:28;;;;;;;11.52;9.07;;;3.50;1.00;;;;;;5101963;27;20243;-75
2024/01/17 11:11:58;;;;;;;16.50;10.35;;;3.60;1.00;;;;;;5102766;28;20368;-75
2024/01/17 11:14:30;;;;;;;12.95;9.50;;;3.50;1.00;;;;;;5105383;27;20357;-76
2024/01/17 11:17:03;;;;;;;12.95;8.63;;;3.60;1.00;;;;;;5102371;27;20227;-75
2024/01/17 11:19:34;;;;;;;10.98;8.68;;;3.60;1.00;;;;;;5103050;27;20674;-76
2024/01/17 11:22:02;;;;;;;11.73;8.23;;;3.40;1.00;;;;;;5106057;27;20231;-75
2024/01/17 11:24:39;;;;;;;9.68;8.63;;;3.10;1.00;;;;;;5106623;28;20252;-75
2024/01/17 11:27:14;;;;;;;9.60;7.70;;;3.20;1.00;;;;;;5100532;27;20692;-74
2024/01/17 11:29:49;;;;;;;13.38;8.55;;;3.30;1.00;;;;;;5105800;27;20325;-74
2024/01/17 11:32:22;;;;;;;10.88;8.30;;;3.40;1.00;;;;;;5110615;27;20794;-76
2024/01/17 11:34:49;;;;;;;10.15;8.07;;;3.40;1.00;;;;;;5108351;27;20239;-76
2024/01/17 11:37:29;;;;;;;8.52;7.25;;;3.50;1.00;;;;;;5104354;27;20907;-76
2024/01/17 11:39:57;;;;;;;8.55;7.05;;;3.90;1.00;;;;;;5111123;28;20748;-76
2024/01/17 11:42:25;;;;;;;12.07;8.73;;;4.20;1.00;;;;;;5109962;28;20722;-78
2024/01/17 11:44:52;;;;;;;9.52;7.90;;;4.20;1.00;;;;;;5107952;27;20281;-77
2024/01/17 11:47:22;;;;;;;9.35;7.78;;;4.10;1.00;;;;;;5097003;27;20805;-77
2024/01/17 11:49:49;;;;;;;10.95;7.60;;;4.00;1.00;;;;;;5107126;27;20254;-77
2024/01/17 11:52:29;;;;;;;9.52;8.38;;;3.90;1.00;;;;;;5105310;27;20246;-75
2024/01/17 11:54:56;;;;;;;9.50;8.07;;;3.90;1.00;;;;;;5103373;27;20672;-76
2024/01/17 11:57:26;;;;;;;10.38;7.50;;;3.80;1.00;;;;;;5100558;28;20628;-74
2024/01/17 12:00:05;;;;;;;10.55;8.35;;;4.10;1.00;;;;;;5105334;28;20250;-75
2024/01/17 12:02:40;;;;;;;10.57;8.60;;;4.40;1.00;;;;;;5107814;27;20239;-76
2024/01/17 12:05:12;;;;;;;11.20;8.73;;;4.60;1.00;;;;;;5094547;27;20730;-76
2024/01/17 12:07:40;;;;;;;9.88;7.88;;;4.30;1.00;;;;;;5103801;28;20307;-78
2024/01/17 12:10:10;;;;;;;10.52;8.60;;;4.30;1.00;;;;;;5107452;27;20235;-77
2024/01/17 12:12:38;;;;;;;10.82;8.52;;;4.10;1.00;;;;;;5108210;27;20279;-77
2024/01/17 12:15:07;;;;;;;12.23;8.55;;;3.70;1.00;;;;;;5108734;28;20231;-78
2024/01/17 12:17:36;;;;;;;14.30;8.98;;;3.40;1.00;;;;;;5108737;27;20232;-77
2024/01/17 12:20:07;;;;;;;12.70;8.85;;;3.50;1.00;;;;;;5110759;27;20326;-76
2024/01/17 12:22:34;;;;;;;12.02;8.93;;;3.60;1.00;;;;;;5108230;27;20235;-78
2024/01/17 12:25:02;;;;;;;10.40;7.85;;;3.80;1.00;;;;;;5106872;28;20240;-76
2024/01/17 12:27:31;;;;;;;11.38;8.70;;;4.10;1.00;;;;;;5109813;28;20239;-77
2024/01/17 12:30:02;;;;;;;9.00;8.10;;;4.20;1.00;;;;;;5108572;27;20293;-76
2024/01/17 12:32:29;;;;;;;10.35;8.20;;;4.30;1.00;;;;;;5111182;27;20330;-77
2024/01/17 12:34:58;;;;;;;14.30;9.35;;;4.30;1.00;;;;;;5098474;27;20377;-77
2024/01/17 12:37:26;;;;;;;9.52;7.70;;;4.30;1.00;;;;;;5110133;27;20247;-76
2024/01/17 12:39:55;;;;;;;11.48;8.32;;;4.30;1.00;;;;;;5084564;28;21057;-76
2024/01/17 12:42:22;;;;;;;12.10;10.30;;;4.20;1.00;;;;;;5107412;27;20236;-78
2024/01/17 12:44:51;;;;;;;20.05;13.32;;;4.10;1.00;;;;;;5104681;27;20358;-77
2024/01/17 12:47:19;;;;;;;10.23;8.48;;;3.80;1.00;;;;;;5106161;27;20235;-75
2024/01/17 12:49:46;;;;;;;11.95;9.40;;;3.70;1.00;;;;;;5106548;27;20297;-75
2024/01/17 12:52:16;;;;;;;9.55;7.80;;;3.40;1.00;;;;;;5108183;27;21427;-77